»·PEaware :: N4922Z KBLH-KPMD

N4922Z :: KBLH-KPMD

FLIGHT INFORMATION

Flight Status: Arrived
Operator: Privately registered:
United States
More flights under this callsign
Pilot: William N. (15320)
Aircraft: MITSUBISHI MU-2 MARQUISE
(MU2)
More flights by this aircraft type
Origin: KBLH Blythe
United States
Destination: KPMD Palmdale AF Plant 42
United States
More flights between these airports :: More routes between these airports
Route: +DIRECT
File this flight plan on PilotEdge
Remarks: DIRECT
Altitude:
(Current/Filed)
12,500ft
Speed:
(Current/Filed)
270kts
Departed: 08-Jun-18 01:31 PM
Arrived: 08-Jun-18 02:19 PM
Distance/Time
Traveled:
178nm/0:48
Distance/Time
To Go:
Arrived

Flight Plot

Page will automatically refresh every two minutes.

Flight plan parsing failed; only flown route is shown


Map Options




Map Legend


Flown Route
Filed Route
Departure Airport
Arrival Airport
Navaid (VOR, NDB)
Fix

Horizontal Profiles

Position Reports

Time Latitude Longitude Heading Altitude Ground
Speed
08-Jun-18 13:21 33.614305 -114.713867 359 393ft 0kts
08-Jun-18 13:22 33.614305 -114.713867 359 393ft 0kts
08-Jun-18 13:23 33.614305 -114.713867 359 393ft 0kts
08-Jun-18 13:24 33.614305 -114.713867 359 393ft 0kts
08-Jun-18 13:25 33.614305 -114.713867 359 393ft 0kts
08-Jun-18 13:26 33.614305 -114.713867 359 393ft 0kts
08-Jun-18 13:27 33.614305 -114.713867 359 393ft 0kts
08-Jun-18 13:28 33.614632 -114.713867 359 393ft 6kts
08-Jun-18 13:29 33.615146 -114.709500 89 394ft 19kts
08-Jun-18 13:30 33.615753 -114.706198 12 394ft 0kts
08-Jun-18 13:31 33.616546 -114.707687 269 394ft 44kts
08-Jun-18 13:32 33.620830 -114.754056 284 1711ft 179kts
08-Jun-18 13:33 33.633482 -114.810938 286 4304ft 176kts
08-Jun-18 13:34 33.650099 -114.866715 287 6683ft 185kts
08-Jun-18 13:35 33.665771 -114.927745 277 8910ft 198kts
08-Jun-18 13:36 33.681673 -114.980307 287 10866ft 205kts
08-Jun-18 13:37 33.704692 -115.043220 288 12398ft 210kts
08-Jun-18 13:38 33.732288 -115.109283 293 12836ft 238kts
08-Jun-18 13:39 33.770689 -115.195823 295 12706ft 269kts
08-Jun-18 13:40 33.807897 -115.275190 292 12659ft 274kts
08-Jun-18 13:41 33.834578 -115.360372 280 12678ft 270kts
08-Jun-18 13:42 33.844195 -115.449266 274 12703ft 268kts
08-Jun-18 13:43 33.875102 -115.532302 295 12722ft 275kts
08-Jun-18 13:44 33.897712 -115.603628 280 12714ft 269kts
08-Jun-18 13:45 33.912321 -115.680003 279 12691ft 270kts
08-Jun-18 13:46 33.939030 -115.766332 292 13147ft 282kts
08-Jun-18 13:47 33.976479 -115.847423 294 14794ft 284kts
08-Jun-18 13:48 34.011098 -115.936294 279 14772ft 300kts
08-Jun-18 13:49 34.019468 -116.035064 271 14775ft 299kts
08-Jun-18 13:50 34.037988 -116.132883 282 14618ft 300kts
08-Jun-18 13:51 34.065454 -116.226988 288 14448ft 301kts
08-Jun-18 13:52 34.101747 -116.315548 296 14438ft 301kts
08-Jun-18 13:53 34.144062 -116.401869 299 14377ft 300kts
08-Jun-18 13:54 34.183589 -116.489458 281 14247ft 297kts
08-Jun-18 13:55 34.188085 -116.585462 271 14444ft 289kts
08-Jun-18 13:56 34.204596 -116.671860 289 14601ft 290kts
08-Jun-18 13:57 34.240145 -116.759885 297 14703ft 292kts
08-Jun-18 13:58 34.274631 -116.847958 287 14764ft 291kts
08-Jun-18 13:59 34.299683 -116.940677 282 14858ft 290kts
08-Jun-18 14:00 34.320486 -117.035069 284 14958ft 290kts
08-Jun-18 14:01 34.343331 -117.128942 286 15061ft 290kts
08-Jun-18 14:02 34.366154 -117.222037 286 15158ft 279kts
08-Jun-18 14:03 34.391884 -117.311967 288 13919ft 285kts
08-Jun-18 14:04 34.419876 -117.401533 290 12814ft 284kts
08-Jun-18 14:05 34.452441 -117.487900 293 11790ft 282kts
08-Jun-18 14:06 34.479808 -117.576014 281 10515ft 281kts
08-Jun-18 14:07 34.488522 -117.663394 278 9229ft 274kts
08-Jun-18 14:08 34.492557 -117.753800 268 7978ft 264kts
08-Jun-18 14:09 34.488924 -117.843143 265 6722ft 261kts
08-Jun-18 14:10 34.486448 -117.931055 272 5558ft 259kts
08-Jun-18 14:11 34.507477 -118.009569 328 4767ft 246kts
08-Jun-18 14:12 34.571120 -118.036438 336 3769ft 242kts
08-Jun-18 14:13 34.629954 -118.059856 33 3350ft 211kts
08-Jun-18 14:14 34.608112 -118.015297 135 3501ft 196kts
08-Jun-18 14:15 34.595051 -117.959853 45 3941ft 185kts
08-Jun-18 14:16 34.628592 -117.976565 260 3624ft 171kts
08-Jun-18 14:17 34.635114 -118.028839 270 3144ft 151kts
08-Jun-18 14:18 34.632723 -118.073697 267 2545ft 116kts
08-Jun-18 14:19 34.632098 -118.089250 8 2508ft 6kts
08-Jun-18 14:20 34.633552 -118.089094 182 2505ft 0kts
08-Jun-18 14:21 34.633552 -118.089094 182 2505ft 0kts
08-Jun-18 14:22 34.633552 -118.089094 182 2505ft 0kts
08-Jun-18 14:23 34.633552 -118.089094 182 2505ft 0kts
08-Jun-18 14:24 34.633552 -118.089094 182 2505ft 0kts
08-Jun-18 14:25 34.633552 -118.089094 182 2505ft 0kts
08-Jun-18 14:26 34.633552 -118.089094 182 2505ft 0kts
08-Jun-18 14:27 34.633552 -118.089094 182 2505ft 0kts
08-Jun-18 14:28 34.633552 -118.089094 182 2505ft 0kts
08-Jun-18 14:29 34.633552 -118.089094 182 2505ft 0kts
08-Jun-18 14:30 34.633552 -118.089094 182 2505ft 0kts
08-Jun-18 14:31 34.633552 -118.089094 182 2505ft 0kts
08-Jun-18 14:32 34.633552 -118.089094 182 2505ft 0kts
08-Jun-18 14:33 34.633552 -118.089094 182 2505ft 0kts

Navigation Log

Ident Type
Flight plan parsing failed, navigation log unavailable